Main page
METAR-TAF:

METAR-TAF

Airports :

Valladolid Airport

Valladolid, Spain

latitude: 41-43N, longitude: 004-51W, elevation: 849 m

Current weather observation

The report was made 22 minutes ago, at 20:30 UTC
Wind 17 kt from the East/Northeast
Temperature -1°C
Humidity 80%
Pressure 1027 hPa
Visibility 10 km or more
no clouds below 1500 m and no cumulonimbus

METAR: LEVD 212030Z 06017KT CAVOK M01/M04 Q1027

Time: 21:52 (20:52 UTC)

Forecast

The report was made 52 minutes ago, at 20:00 UTC
Forecast valid from 21 at 21 UTC to 22 at 21 UTC
Wind 14 kt from the Northeast
Visibility 10 km or more
no clouds below 1500 m and no cumulonimbus
Probability 30% :
Temporary
from 21 at 21 UTC to 21 at 22 UTC
Wind 15 kt from the Northeast with gusts up to 25 kt

TAF: LEVD 212000Z 2121/2221 05014KT CAVOK TX10/2214Z TNM04/2208Z PROB30 TEMPO 2121/2122 05015G25KT

Weather observations and forecasts of more than 4000 airports (METAR and TAF reports).

The available stations are represented by yellow and red dots on the map.

Hover mouse over dot to see the name of the station.

Then click to see weather observations and forecasts.

To change the map : click on the green buttons with a black cross to zoom in, on the green button with a dash to zoom out, or on the green arrows for adjacent maps.


METAR-TAF: